createdAt,value
2018-09-16T00:02:26.740Z,16.20
2018-09-16T00:04:55.056Z,16.20
2018-09-16T00:07:23.505Z,16.20
2018-09-16T00:09:51.887Z,16.20
2018-09-16T00:12:20.129Z,16.10
2018-09-16T00:14:48.527Z,16.10
2018-09-16T00:17:16.881Z,16.10
2018-09-16T00:19:45.142Z,16.10
2018-09-16T00:22:13.321Z,16.10
2018-09-16T00:24:41.572Z,16.10
2018-09-16T00:27:09.914Z,16.00
2018-09-16T00:29:38.161Z,16.10
2018-09-16T00:32:12.055Z,16.10
2018-09-16T00:34:40.295Z,16.00
2018-09-16T00:37:08.509Z,16.10
2018-09-16T00:39:37.031Z,16.10
2018-09-16T00:42:05.717Z,16.00
2018-09-16T00:44:33.890Z,16.00
2018-09-16T00:47:02.103Z,16.00
2018-09-16T00:49:30.340Z,16.00
2018-09-16T00:51:58.618Z,16.00
2018-09-16T00:54:27.100Z,15.90
2018-09-16T00:56:55.296Z,15.90
2018-09-16T00:59:23.755Z,15.90
2018-09-16T01:01:51.957Z,15.80
2018-09-16T01:04:20.200Z,15.80
2018-09-16T01:06:48.401Z,15.80
2018-09-16T01:09:16.929Z,15.80
2018-09-16T01:11:45.110Z,15.70
2018-09-16T01:14:13.305Z,15.70
2018-09-16T01:16:41.949Z,15.70
2018-09-16T01:19:11.148Z,15.60
2018-09-16T01:21:39.472Z,15.60
2018-09-16T01:24:07.672Z,15.60
2018-09-16T01:26:36.373Z,15.50
2018-09-16T01:29:04.716Z,15.50
2018-09-16T01:31:32.932Z,15.50
2018-09-16T01:34:01.185Z,15.40
2018-09-16T01:36:29.421Z,15.40
2018-09-16T01:38:58.000Z,15.40
2018-09-16T01:41:26.209Z,15.40
2018-09-16T01:43:54.438Z,15.40
2018-09-16T01:46:22.683Z,15.40
2018-09-16T01:48:50.935Z,15.40
2018-09-16T01:51:19.143Z,15.40
2018-09-16T01:53:47.342Z,15.40
2018-09-16T01:56:15.590Z,15.40
2018-09-16T01:58:43.822Z,15.40
2018-09-16T02:01:12.570Z,15.40
2018-09-16T02:03:41.146Z,15.30
2018-09-16T02:06:09.385Z,15.30
2018-09-16T02:08:37.606Z,15.30
2018-09-16T02:11:05.865Z,15.30
2018-09-16T02:13:34.091Z,15.30
2018-09-16T02:16:02.761Z,15.30
2018-09-16T02:18:30.961Z,15.30
2018-09-16T02:20:59.186Z,15.30
2018-09-16T02:23:27.420Z,15.30
2018-09-16T02:25:55.690Z,15.30
2018-09-16T02:28:24.063Z,15.30
2018-09-16T02:30:52.270Z,15.30
2018-09-16T02:33:20.480Z,15.30
2018-09-16T02:35:48.705Z,15.30
2018-09-16T02:38:16.974Z,15.30
2018-09-16T02:40:45.329Z,15.30
2018-09-16T02:43:13.574Z,15.30
2018-09-16T02:45:41.770Z,15.20
2018-09-16T02:48:09.995Z,15.20
2018-09-16T02:50:38.249Z,15.30
2018-09-16T02:53:06.421Z,15.20
2018-09-16T02:55:34.620Z,15.20
2018-09-16T02:58:02.825Z,15.20
2018-09-16T03:00:31.101Z,15.20
2018-09-16T03:02:59.266Z,15.20
2018-09-16T03:05:32.823Z,15.20
2018-09-16T03:08:01.348Z,15.10
2018-09-16T03:10:29.581Z,15.10
2018-09-16T03:12:57.855Z,15.00
2018-09-16T03:15:26.070Z,15.00
2018-09-16T03:17:54.393Z,15.00
2018-09-16T03:20:22.613Z,15.00
2018-09-16T03:22:51.048Z,15.00
2018-09-16T03:25:19.517Z,14.90
2018-09-16T03:27:47.922Z,14.90
2018-09-16T03:30:16.482Z,14.90
2018-09-16T03:32:44.645Z,14.90
2018-09-16T03:35:12.846Z,14.90
2018-09-16T03:37:41.093Z,14.80
2018-09-16T03:40:09.461Z,14.80
2018-09-16T03:42:37.702Z,14.80
2018-09-16T03:45:06.493Z,14.80
2018-09-16T03:47:34.717Z,14.80
2018-09-16T03:50:03.024Z,14.80
2018-09-16T03:52:31.553Z,14.80
2018-09-16T03:54:59.778Z,14.70
2018-09-16T03:57:27.993Z,14.70
2018-09-16T03:59:56.217Z,14.70
2018-09-16T04:02:24.449Z,14.70
2018-09-16T04:04:52.783Z,14.70
2018-09-16T04:07:20.997Z,14.70
2018-09-16T04:09:49.224Z,14.70
2018-09-16T04:12:17.414Z,14.70
2018-09-16T04:14:45.601Z,14.60
2018-09-16T04:17:13.945Z,14.60
2018-09-16T04:19:42.165Z,14.60
2018-09-16T04:22:10.430Z,14.60
2018-09-16T04:24:38.649Z,14.60
2018-09-16T04:27:06.868Z,14.50
2018-09-16T04:29:35.078Z,14.50
2018-09-16T04:32:03.429Z,14.50
2018-09-16T04:34:31.659Z,14.50
2018-09-16T04:36:59.925Z,14.50
2018-09-16T04:39:28.244Z,14.50
2018-09-16T04:41:56.418Z,14.50
2018-09-16T04:44:24.680Z,14.50
2018-09-16T04:46:53.102Z,14.50
2018-09-16T04:49:21.309Z,14.50
2018-09-16T04:51:49.832Z,14.50
2018-09-16T04:54:18.043Z,14.50
2018-09-16T04:56:46.265Z,14.50
2018-09-16T04:59:14.693Z,14.50
2018-09-16T05:01:42.933Z,14.50
2018-09-16T05:04:11.164Z,14.50
2018-09-16T05:06:39.386Z,14.50
2018-09-16T05:09:09.382Z,14.50
2018-09-16T05:11:37.885Z,14.50
2018-09-16T05:14:06.129Z,14.50
2018-09-16T05:16:35.053Z,14.60
2018-09-16T05:19:03.300Z,14.60
2018-09-16T05:21:31.530Z,14.60
2018-09-16T05:23:59.831Z,14.70
2018-09-16T05:26:28.028Z,14.70
2018-09-16T05:28:56.306Z,14.70
2018-09-16T05:31:24.600Z,14.70
2018-09-16T05:33:52.771Z,14.70
2018-09-16T05:36:21.010Z,14.60
2018-09-16T05:38:49.229Z,14.50
2018-09-16T05:41:17.472Z,14.50
2018-09-16T05:43:45.680Z,14.60
2018-09-16T05:46:13.933Z,14.50
2018-09-16T05:48:42.121Z,14.50
2018-09-16T05:51:10.318Z,14.60
2018-09-16T05:53:38.675Z,14.60
2018-09-16T05:56:06.765Z,14.60
2018-09-16T05:58:34.961Z,14.60
2018-09-16T06:01:03.222Z,14.70
2018-09-16T06:03:31.595Z,14.80
2018-09-16T06:05:59.993Z,14.90
2018-09-16T06:08:28.333Z,14.90
2018-09-16T06:10:56.586Z,15.00
2018-09-16T06:13:24.753Z,15.10
2018-09-16T06:15:53.179Z,15.10
2018-09-16T06:18:21.406Z,15.00
2018-09-16T06:20:49.916Z,15.10
2018-09-16T06:23:18.134Z,15.20
2018-09-16T06:25:46.352Z,15.20
2018-09-16T06:28:14.813Z,15.30
2018-09-16T06:30:43.062Z,15.40
2018-09-16T06:33:11.269Z,15.60
2018-09-16T06:35:39.473Z,15.70
2018-09-16T06:38:07.669Z,15.80
2018-09-16T06:40:35.885Z,15.90
2018-09-16T06:43:04.134Z,16.00
2018-09-16T06:45:32.699Z,16.00
2018-09-16T06:48:00.927Z,16.10
2018-09-16T06:50:29.317Z,16.10
2018-09-16T06:52:57.515Z,16.10
2018-09-16T06:55:25.972Z,16.20
2018-09-16T07:04:38.191Z,16.40
2018-09-16T07:07:06.401Z,16.20
2018-09-16T07:09:34.653Z,16.30
2018-09-16T07:12:03.104Z,16.50
2018-09-16T07:14:31.381Z,16.60
2018-09-16T07:16:59.469Z,16.60
2018-09-16T07:19:27.678Z,16.70
2018-09-16T07:21:55.897Z,16.80
2018-09-16T07:24:24.302Z,16.90
2018-09-16T07:26:52.583Z,16.90
2018-09-16T07:29:20.722Z,17.00
2018-09-16T07:31:48.905Z,17.10
2018-09-16T07:34:17.132Z,17.20
2018-09-16T07:36:45.368Z,17.30
2018-09-16T07:39:13.693Z,17.40
2018-09-16T07:41:41.936Z,17.60
2018-09-16T07:44:10.153Z,17.70
2018-09-16T07:46:38.381Z,17.80
2018-09-16T07:49:06.737Z,17.90
2018-09-16T07:51:34.953Z,18.00
2018-09-16T07:54:03.174Z,18.10
2018-09-16T07:56:31.665Z,18.10
2018-09-16T07:58:59.868Z,18.10
2018-09-16T08:01:28.120Z,18.20
2018-09-16T08:03:56.333Z,18.30
2018-09-16T08:06:24.581Z,18.50
2018-09-16T08:08:52.813Z,18.60
2018-09-16T08:11:21.029Z,18.70
2018-09-16T08:13:49.344Z,18.70
2018-09-16T08:16:17.491Z,18.90
2018-09-16T08:18:45.762Z,18.90
2018-09-16T08:21:14.027Z,19.00
2018-09-16T08:23:42.247Z,19.10
2018-09-16T08:26:10.470Z,19.10
2018-09-16T08:28:38.776Z,19.20
2018-09-16T08:31:07.048Z,19.30
2018-09-16T08:33:35.284Z,19.40
2018-09-16T08:36:03.625Z,19.60
2018-09-16T08:38:31.829Z,19.70
2018-09-16T08:41:00.394Z,19.80
2018-09-16T08:43:28.631Z,19.90
2018-09-16T08:45:56.816Z,20.00
2018-09-16T08:48:25.069Z,20.10
2018-09-16T08:50:53.288Z,20.10
2018-09-16T08:53:21.533Z,20.10
2018-09-16T08:55:49.739Z,20.20
2018-09-16T08:58:18.036Z,20.30
2018-09-16T09:00:46.169Z,20.30
2018-09-16T09:03:14.437Z,20.40
2018-09-16T09:05:42.640Z,20.40
2018-09-16T09:08:11.170Z,20.50
2018-09-16T09:10:39.381Z,20.50
2018-09-16T09:13:07.625Z,20.60
2018-09-16T09:15:35.849Z,20.70
2018-09-16T09:18:04.267Z,20.80
2018-09-16T09:20:32.468Z,20.80
2018-09-16T09:23:00.715Z,21.00
2018-09-16T09:25:28.945Z,21.00
2018-09-16T09:27:57.270Z,21.00
2018-09-16T09:30:25.462Z,21.10
2018-09-16T09:32:53.729Z,21.20
2018-09-16T09:35:21.941Z,21.20
2018-09-16T09:37:50.156Z,21.20
2018-09-16T09:40:18.364Z,21.30
2018-09-16T09:42:46.625Z,21.40
2018-09-16T09:45:14.869Z,21.50
2018-09-16T09:47:43.085Z,21.60
2018-09-16T09:50:11.269Z,21.70
2018-09-16T09:52:39.526Z,21.80
2018-09-16T09:55:07.745Z,21.80
2018-09-16T09:57:35.973Z,21.80
2018-09-16T10:00:04.261Z,21.90
2018-09-16T10:02:32.477Z,22.00
2018-09-16T10:05:00.707Z,22.10
2018-09-16T10:07:28.928Z,22.20
2018-09-16T10:09:57.418Z,22.20
2018-09-16T10:12:25.657Z,22.20
2018-09-16T10:14:53.910Z,22.20
2018-09-16T10:17:22.145Z,22.30
2018-09-16T10:19:50.458Z,22.50
2018-09-16T10:22:18.658Z,22.70
2018-09-16T10:24:46.878Z,22.90
2018-09-16T10:27:15.093Z,23.00
2018-09-16T10:29:43.325Z,23.30
2018-09-16T10:32:11.949Z,23.50
2018-09-16T10:34:40.223Z,23.80
2018-09-16T10:37:08.601Z,24.00
2018-09-16T10:39:36.818Z,24.30
2018-09-16T10:42:05.005Z,24.70
2018-09-16T10:44:33.348Z,25.00
2018-09-16T10:47:01.541Z,25.50
2018-09-16T10:49:29.740Z,26.10
2018-09-16T10:51:57.949Z,26.80
2018-09-16T10:54:26.244Z,27.40
2018-09-16T10:56:54.496Z,28.00
2018-09-16T10:59:22.779Z,28.50
2018-09-16T11:01:51.031Z,29.10
2018-09-16T11:04:19.229Z,30.00
2018-09-16T11:06:47.409Z,30.80
2018-09-16T11:09:15.636Z,31.80
2018-09-16T11:11:43.955Z,33.20
2018-09-16T11:14:12.157Z,34.60
2018-09-16T11:16:40.429Z,36.20
2018-09-16T11:19:08.785Z,37.60
2018-09-16T11:21:37.054Z,38.90
2018-09-16T11:24:05.281Z,40.20
2018-09-16T11:26:33.562Z,41.40
2018-09-16T11:29:01.993Z,41.80
2018-09-16T11:31:30.374Z,42.50
2018-09-16T11:33:58.617Z,43.10
2018-09-16T11:36:26.821Z,43.40
2018-09-16T11:38:55.280Z,43.60
2018-09-16T11:41:23.592Z,44.10
2018-09-16T11:43:51.782Z,44.30
2018-09-16T11:46:19.980Z,44.50
2018-09-16T11:48:48.173Z,44.50
2018-09-16T11:51:16.366Z,44.50
2018-09-16T11:53:44.561Z,44.50
2018-09-16T11:56:12.829Z,44.60
2018-09-16T11:58:41.064Z,44.70
2018-09-16T12:01:09.309Z,44.90
2018-09-16T12:03:37.556Z,44.90
2018-09-16T12:06:05.761Z,44.60
2018-09-16T12:08:34.000Z,44.70
2018-09-16T12:11:02.285Z,45.00
2018-09-16T12:13:30.484Z,45.40
2018-09-16T12:15:58.753Z,45.90
2018-09-16T12:18:26.933Z,46.00
2018-09-16T12:20:55.170Z,46.10
2018-09-16T12:23:23.570Z,46.10
2018-09-16T12:25:51.765Z,46.00
2018-09-16T12:28:19.941Z,46.00
2018-09-16T12:30:48.185Z,45.90
2018-09-16T12:33:16.389Z,45.80
2018-09-16T12:35:44.606Z,46.10
2018-09-16T12:38:12.810Z,45.70
2018-09-16T12:40:41.033Z,45.30
2018-09-16T12:43:09.230Z,45.10
2018-09-16T12:45:37.465Z,45.10
2018-09-16T12:48:05.694Z,45.10
2018-09-16T12:50:33.920Z,45.00
2018-09-16T12:53:02.149Z,45.50
2018-09-16T12:55:30.370Z,45.70
2018-09-16T12:57:58.589Z,45.70
2018-09-16T13:00:26.812Z,45.60
2018-09-16T13:02:55.021Z,45.40
2018-09-16T13:05:23.405Z,45.30
2018-09-16T13:07:51.621Z,45.70
2018-09-16T13:10:19.825Z,46.10
2018-09-16T13:12:48.076Z,46.60
2018-09-16T13:15:16.292Z,46.80
2018-09-16T13:17:44.706Z,47.10
2018-09-16T13:20:13.364Z,47.00
2018-09-16T13:22:41.609Z,47.10
2018-09-16T13:25:09.852Z,47.60
2018-09-16T13:27:38.057Z,48.00
2018-09-16T13:30:06.312Z,47.90
2018-09-16T13:32:34.526Z,47.90
2018-09-16T13:35:02.692Z,47.90
2018-09-16T13:37:30.881Z,48.10
2018-09-16T13:39:59.185Z,47.80
2018-09-16T13:42:27.453Z,47.80
2018-09-16T13:44:55.765Z,47.90
2018-09-16T13:47:24.014Z,47.90
2018-09-16T13:49:52.268Z,47.60
2018-09-16T13:52:20.626Z,47.90
2018-09-16T13:54:48.897Z,48.00
2018-09-16T13:57:17.079Z,48.10
2018-09-16T13:59:45.296Z,47.70
2018-09-16T14:02:13.498Z,47.20
2018-09-16T14:04:41.867Z,46.70
2018-09-16T14:07:10.118Z,46.50
2018-09-16T14:09:38.413Z,47.00
2018-09-16T14:12:06.698Z,47.40
2018-09-16T14:14:35.098Z,47.30
2018-09-16T14:17:03.305Z,47.20
2018-09-16T14:19:31.514Z,47.00
2018-09-16T14:21:59.765Z,47.10
2018-09-16T14:24:28.029Z,47.00
2018-09-16T14:26:56.237Z,46.70
2018-09-16T14:29:24.457Z,46.60
2018-09-16T14:31:52.645Z,46.60
2018-09-16T14:34:21.182Z,46.80
2018-09-16T14:36:49.561Z,46.70
2018-09-16T14:39:17.813Z,46.20
2018-09-16T14:41:46.001Z,45.90
2018-09-16T14:44:14.392Z,45.80
2018-09-16T14:46:42.640Z,45.80
2018-09-16T14:49:10.870Z,45.90
2018-09-16T14:51:39.117Z,46.10
2018-09-16T14:54:07.349Z,46.00
2018-09-16T14:56:35.670Z,45.70
2018-09-16T14:59:04.356Z,45.10
2018-09-16T15:01:32.733Z,44.40
2018-09-16T15:04:00.914Z,43.70
2018-09-16T15:06:29.134Z,42.70
2018-09-16T15:08:57.564Z,42.00
2018-09-16T15:11:25.761Z,41.80
2018-09-16T15:13:54.881Z,41.70
2018-09-16T15:16:23.198Z,41.60
2018-09-16T15:18:51.414Z,40.60
2018-09-16T15:21:19.608Z,39.20
2018-09-16T15:23:47.824Z,37.50
2018-09-16T15:26:16.086Z,36.20
2018-09-16T15:28:44.314Z,35.10
2018-09-16T15:31:12.599Z,34.10
2018-09-16T15:33:40.858Z,33.10
2018-09-16T15:36:09.078Z,32.20
2018-09-16T15:38:37.349Z,31.50
2018-09-16T15:41:05.767Z,30.90
2018-09-16T15:43:33.953Z,30.50
2018-09-16T15:46:02.171Z,30.20
2018-09-16T15:48:30.576Z,29.80
2018-09-16T15:50:58.805Z,29.50
2018-09-16T15:53:27.009Z,29.30
2018-09-16T15:55:55.225Z,29.00
2018-09-16T15:58:23.621Z,28.70
2018-09-16T16:00:51.852Z,28.40
2018-09-16T16:03:20.059Z,28.20
2018-09-16T16:05:48.609Z,28.00
2018-09-16T16:08:17.018Z,27.80
2018-09-16T16:10:45.266Z,27.70
2018-09-16T16:13:13.745Z,27.40
2018-09-16T16:15:41.990Z,27.20
2018-09-16T16:18:10.173Z,27.10
2018-09-16T16:20:38.395Z,27.00
2018-09-16T16:23:06.637Z,26.90
2018-09-16T16:25:34.853Z,26.80
2018-09-16T16:28:03.120Z,26.70
2018-09-16T16:30:31.478Z,26.60
2018-09-16T16:32:59.757Z,26.50
2018-09-16T16:35:28.001Z,26.30
2018-09-16T16:37:56.192Z,26.10
2018-09-16T16:40:24.422Z,26.00
2018-09-16T16:42:52.689Z,25.90
2018-09-16T16:45:20.896Z,25.80
2018-09-16T16:47:49.097Z,25.70
2018-09-16T16:50:17.431Z,25.50
2018-09-16T16:52:45.712Z,25.40
2018-09-16T16:55:13.875Z,25.30
2018-09-16T16:57:42.099Z,25.10
2018-09-16T17:00:10.409Z,25.00
2018-09-16T17:02:38.622Z,24.80
2018-09-16T17:05:07.058Z,24.70
2018-09-16T17:07:35.292Z,24.60
2018-09-16T17:10:03.714Z,24.50
2018-09-16T17:12:32.249Z,24.30
2018-09-16T17:15:00.598Z,24.20
2018-09-16T17:17:28.801Z,24.10
2018-09-16T17:19:57.130Z,24.00
2018-09-16T17:22:25.373Z,23.90
2018-09-16T17:24:53.665Z,23.80
2018-09-16T17:27:21.885Z,23.60
2018-09-16T17:29:50.089Z,23.60
2018-09-16T17:32:18.304Z,23.50
2018-09-16T17:34:46.754Z,23.40
2018-09-16T17:37:14.986Z,23.30
2018-09-16T17:39:43.216Z,23.20
2018-09-16T17:42:11.686Z,23.10
2018-09-16T17:44:40.074Z,23.10
2018-09-16T17:47:08.277Z,22.90
2018-09-16T17:49:36.522Z,22.90
2018-09-16T17:52:04.751Z,22.80
2018-09-16T17:54:32.957Z,22.80
2018-09-16T17:57:01.273Z,22.70
2018-09-16T17:59:29.497Z,22.70
2018-09-16T18:01:57.785Z,22.60
2018-09-16T18:04:26.013Z,22.60
2018-09-16T18:06:54.241Z,22.50
2018-09-16T18:09:22.485Z,22.50
2018-09-16T18:11:50.741Z,22.40
2018-09-16T18:14:19.021Z,22.40
2018-09-16T18:16:47.320Z,22.30
2018-09-16T18:19:15.464Z,22.30
2018-09-16T18:21:43.700Z,22.30
2018-09-16T18:24:12.040Z,22.30
2018-09-16T18:26:40.241Z,22.20
2018-09-16T18:29:08.737Z,22.20
2018-09-16T18:31:37.017Z,22.20
2018-09-16T18:34:05.261Z,22.10
2018-09-16T18:36:33.484Z,22.10
2018-09-16T18:39:01.942Z,22.10
2018-09-16T18:41:30.185Z,22.00
2018-09-16T18:43:58.441Z,22.00
2018-09-16T18:46:26.667Z,21.90
2018-09-16T18:48:54.944Z,21.90
2018-09-16T18:51:23.148Z,21.80
2018-09-16T18:53:51.368Z,21.80
2018-09-16T18:56:19.594Z,21.80
2018-09-16T18:58:47.812Z,21.80
2018-09-16T19:01:16.265Z,21.70
2018-09-16T19:03:44.687Z,21.70
2018-09-16T19:06:12.861Z,21.60
2018-09-16T19:08:41.085Z,21.60
2018-09-16T19:11:09.289Z,21.60
2018-09-16T19:13:37.565Z,21.50
2018-09-16T19:16:05.888Z,21.40
2018-09-16T19:18:34.111Z,21.40
2018-09-16T19:21:02.354Z,21.40
2018-09-16T19:23:30.584Z,21.40
2018-09-16T19:25:58.849Z,21.40
2018-09-16T19:28:27.116Z,21.40
2018-09-16T19:30:55.345Z,21.30
2018-09-16T19:33:23.655Z,21.40
2018-09-16T19:35:51.877Z,21.30
2018-09-16T19:38:20.077Z,21.30
2018-09-16T19:40:48.313Z,21.30
2018-09-16T19:43:16.575Z,21.40
2018-09-16T19:45:44.857Z,21.30
2018-09-16T19:48:13.438Z,21.40
2018-09-16T19:50:41.689Z,21.40
2018-09-16T19:53:10.232Z,21.40
2018-09-16T19:55:38.469Z,21.40
2018-09-16T19:58:06.709Z,21.20
2018-09-16T20:00:34.910Z,21.10
2018-09-16T20:03:03.170Z,20.90
2018-09-16T20:05:31.406Z,20.80
2018-09-16T20:07:59.649Z,20.70
2018-09-16T20:10:28.677Z,20.60
2018-09-16T20:12:56.929Z,20.70
2018-09-16T20:15:25.177Z,20.60
2018-09-16T20:17:53.503Z,20.50
2018-09-16T20:20:21.662Z,20.40
2018-09-16T20:22:49.865Z,20.40
2018-09-16T20:25:18.080Z,20.30
2018-09-16T20:27:47.228Z,20.30
2018-09-16T20:30:15.718Z,20.40
2018-09-16T20:32:44.138Z,20.40
2018-09-16T20:35:12.405Z,20.40
2018-09-16T20:37:40.668Z,20.40
2018-09-16T20:40:08.865Z,20.40
2018-09-16T20:42:37.092Z,20.40
2018-09-16T20:45:05.397Z,20.40
2018-09-16T20:47:33.666Z,20.40
2018-09-16T20:50:01.887Z,20.40
2018-09-16T20:52:30.176Z,20.40
2018-09-16T20:54:58.625Z,20.40
2018-09-16T20:57:26.845Z,20.40
2018-09-16T20:59:55.060Z,20.40
2018-09-16T21:02:23.289Z,20.50
2018-09-16T21:04:52.149Z,20.50
2018-09-16T21:07:20.806Z,20.50
2018-09-16T21:09:49.388Z,20.60
2018-09-16T21:12:17.596Z,20.60
2018-09-16T21:14:45.849Z,20.60
2018-09-16T21:17:14.454Z,20.70
2018-09-16T21:19:43.011Z,20.70
2018-09-16T21:22:11.202Z,20.70
2018-09-16T21:24:39.466Z,20.70
2018-09-16T21:27:07.634Z,20.90
2018-09-16T21:29:35.847Z,20.90
2018-09-16T21:32:04.076Z,20.90
2018-09-16T21:34:32.269Z,20.90
2018-09-16T21:37:00.490Z,20.90
2018-09-16T21:39:28.700Z,20.90
2018-09-16T21:41:56.902Z,20.80
2018-09-16T21:44:25.103Z,20.80
2018-09-16T21:46:53.345Z,20.90
2018-09-16T21:49:21.576Z,20.90
2018-09-16T21:51:49.805Z,20.90
2018-09-16T21:54:18.036Z,20.90
2018-09-16T21:56:46.273Z,21.00
2018-09-16T21:59:14.707Z,20.90
2018-09-16T22:01:42.933Z,20.80
2018-09-16T22:04:11.147Z,20.70
2018-09-16T22:06:39.437Z,20.60
2018-09-16T22:09:08.888Z,20.50
2018-09-16T22:11:37.145Z,20.30
2018-09-16T22:14:05.357Z,20.30
2018-09-16T22:16:33.565Z,20.20
2018-09-16T22:19:01.793Z,20.20
2018-09-16T22:21:30.038Z,20.20
2018-09-16T22:23:58.270Z,20.20
2018-09-16T22:26:26.497Z,20.20
2018-09-16T22:28:54.749Z,20.20
2018-09-16T22:31:23.001Z,20.30
2018-09-16T22:33:51.221Z,20.30
2018-09-16T22:36:19.449Z,20.40
2018-09-16T22:38:47.651Z,20.40
2018-09-16T22:41:15.849Z,20.40
2018-09-16T22:43:44.204Z,20.40
2018-09-16T22:46:12.401Z,20.30
2018-09-16T22:48:40.649Z,20.30
2018-09-16T22:51:08.869Z,20.30
2018-09-16T22:53:37.097Z,20.30
2018-09-16T22:56:05.325Z,20.20
2018-09-16T22:58:33.581Z,20.10
2018-09-16T23:01:01.830Z,20.00
2018-09-16T23:03:30.036Z,19.80
2018-09-16T23:05:58.795Z,19.80
2018-09-16T23:08:27.023Z,19.90
2018-09-16T23:10:55.243Z,19.90
2018-09-16T23:13:23.433Z,19.80
2018-09-16T23:15:51.697Z,19.80
2018-09-16T23:18:19.897Z,19.70
2018-09-16T23:20:48.140Z,19.60
2018-09-16T23:23:16.372Z,19.40
2018-09-16T23:25:44.693Z,19.40
2018-09-16T23:28:13.345Z,19.50
2018-09-16T23:30:41.888Z,19.50
2018-09-16T23:33:10.109Z,19.50
2018-09-16T23:35:38.325Z,19.60
2018-09-16T23:38:06.852Z,19.60
2018-09-16T23:40:35.255Z,19.70
2018-09-16T23:43:03.705Z,19.70
2018-09-16T23:45:32.211Z,19.60
2018-09-16T23:48:00.357Z,19.60
2018-09-16T23:50:28.605Z,19.60
2018-09-16T23:52:56.818Z,19.50
2018-09-16T23:55:25.117Z,19.40
2018-09-16T23:57:53.261Z,19.30
